sensor_id;sensor_type;location;lat;lon;timestamp;pressure;altitude;pressure_sealevel;temperature;humidity
63343;BME280;49465;57.664;39.686;2023-03-12T00:00:10;98596.47;;;1.51;63.15
63343;BME280;49465;57.664;39.686;2023-03-12T00:02:36;98585.97;;;1.54;62.99
63343;BME280;49465;57.664;39.686;2023-03-12T00:05:03;98584.97;;;1.56;63.15
63343;BME280;49465;57.664;39.686;2023-03-12T00:07:32;98570.97;;;1.61;63.10
63343;BME280;49465;57.664;39.686;2023-03-12T00:10:04;98568.53;;;1.73;63.69
63343;BME280;49465;57.664;39.686;2023-03-12T00:12:33;98546.53;;;1.66;63.07
63343;BME280;49465;57.664;39.686;2023-03-12T00:15:02;98547.88;;;1.73;64.15
63343;BME280;49465;57.664;39.686;2023-03-12T00:17:29;98528.88;;;1.58;64.24
63343;BME280;49465;57.664;39.686;2023-03-12T00:20:08;98529.00;;;1.57;64.35
63343;BME280;49465;57.664;39.686;2023-03-12T00:22:38;98529.03;;;1.71;64.74
63343;BME280;49465;57.664;39.686;2023-03-12T00:25:06;98519.88;;;1.66;64.63
63343;BME280;49465;57.664;39.686;2023-03-12T00:27:36;98511.53;;;1.76;63.42
63343;BME280;49465;57.664;39.686;2023-03-12T00:30:06;98507.81;;;1.96;64.18
63343;BME280;49465;57.664;39.686;2023-03-12T00:32:35;98494.19;;;1.78;64.08
63343;BME280;49465;57.664;39.686;2023-03-12T00:35:04;98494.34;;;1.75;64.80
63343;BME280;49465;57.664;39.686;2023-03-12T00:37:33;98483.34;;;1.72;65.18
63343;BME280;49465;57.664;39.686;2023-03-12T00:40:02;98465.13;;;1.89;64.38
63343;BME280;49465;57.664;39.686;2023-03-12T00:42:31;98458.31;;;1.88;64.22
63343;BME280;49465;57.664;39.686;2023-03-12T00:44:59;98449.59;;;1.75;65.50
63343;BME280;49465;57.664;39.686;2023-03-12T00:47:26;98448.31;;;1.82;64.84
63343;BME280;49465;57.664;39.686;2023-03-12T00:49:52;98433.47;;;1.86;65.38
63343;BME280;49465;57.664;39.686;2023-03-12T00:52:21;98424.06;;;1.85;65.52
63343;BME280;49465;57.664;39.686;2023-03-12T00:54:50;98415.59;;;1.97;64.95
63343;BME280;49465;57.664;39.686;2023-03-12T00:57:17;98408.41;;;2.02;64.46
63343;BME280;49465;57.664;39.686;2023-03-12T00:59:48;98397.69;;;2.08;65.71
63343;BME280;49465;57.664;39.686;2023-03-12T01:02:17;98394.25;;;1.93;65.92
63343;BME280;49465;57.664;39.686;2023-03-12T01:04:49;98380.78;;;2.03;65.87
63343;BME280;49465;57.664;39.686;2023-03-12T01:07:17;98376.53;;;2.02;65.92
63343;BME280;49465;57.664;39.686;2023-03-12T01:09:44;98368.88;;;2.00;66.24
63343;BME280;49465;57.664;39.686;2023-03-12T01:12:10;98373.75;;;2.05;66.04
63343;BME280;49465;57.664;39.686;2023-03-12T01:14:39;98375.44;;;2.20;66.49
63343;BME280;49465;57.664;39.686;2023-03-12T01:17:05;98350.78;;;2.14;65.70
63343;BME280;49465;57.664;39.686;2023-03-12T01:19:34;98348.63;;;2.21;65.65
63343;BME280;49465;57.664;39.686;2023-03-12T01:22:00;98342.25;;;2.27;65.66
63343;BME280;49465;57.664;39.686;2023-03-12T01:24:26;98332.94;;;2.24;65.82
63343;BME280;49465;57.664;39.686;2023-03-12T01:26:53;98323.50;;;2.37;65.00
63343;BME280;49465;57.664;39.686;2023-03-12T01:29:22;98318.06;;;2.28;65.34
63343;BME280;49465;57.664;39.686;2023-03-12T01:31:52;98312.44;;;2.21;66.34
63343;BME280;49465;57.664;39.686;2023-03-12T01:34:21;98301.19;;;2.22;66.47
63343;BME280;49465;57.664;39.686;2023-03-12T01:36:47;98305.78;;;2.31;66.09
63343;BME280;49465;57.664;39.686;2023-03-12T01:39:14;98309.38;;;2.43;65.48
63343;BME280;49465;57.664;39.686;2023-03-12T01:41:41;98292.81;;;2.46;65.27
63343;BME280;49465;57.664;39.686;2023-03-12T01:44:13;98304.47;;;2.66;66.08
63343;BME280;49465;57.664;39.686;2023-03-12T01:46:43;98295.41;;;2.46;66.92
63343;BME280;49465;57.664;39.686;2023-03-12T01:49:15;98292.03;;;2.58;66.61
63343;BME280;49465;57.664;39.686;2023-03-12T01:52:02;98294.13;;;2.66;67.01
63343;BME280;49465;57.664;39.686;2023-03-12T01:57:36;98282.09;;;2.92;66.22
63343;BME280;49465;57.664;39.686;2023-03-12T02:00:12;98274.06;;;2.69;66.44
63343;BME280;49465;57.664;39.686;2023-03-12T02:02:39;98269.69;;;2.57;65.95
63343;BME280;49465;57.664;39.686;2023-03-12T02:08:00;98260.41;;;2.67;65.60
63343;BME280;49465;57.664;39.686;2023-03-12T02:10:27;98252.34;;;2.72;65.74
63343;BME280;49465;57.664;39.686;2023-03-12T02:13:02;98252.41;;;2.57;66.51
63343;BME280;49465;57.664;39.686;2023-03-12T02:15:38;98253.56;;;2.66;66.83
63343;BME280;49465;57.664;39.686;2023-03-12T02:18:09;98253.50;;;2.81;66.49
63343;BME280;49465;57.664;39.686;2023-03-12T02:25:58;98244.41;;;2.88;65.45
63343;BME280;49465;57.664;39.686;2023-03-12T02:28:34;98233.25;;;3.00;66.40
63343;BME280;49465;57.664;39.686;2023-03-12T02:31:09;98224.53;;;2.88;66.47
63343;BME280;49465;57.664;39.686;2023-03-12T02:33:40;98224.72;;;2.85;66.30
63343;BME280;49465;57.664;39.686;2023-03-12T02:36:07;98207.03;;;2.92;66.34
63343;BME280;49465;57.664;39.686;2023-03-12T02:44:13;98194.84;;;3.45;66.71
63343;BME280;49465;57.664;39.686;2023-03-12T02:46:49;98195.97;;;3.28;66.27
63343;BME280;49465;57.664;39.686;2023-03-12T02:49:19;98189.56;;;3.08;66.42
63343;BME280;49465;57.664;39.686;2023-03-12T02:51:46;98179.81;;;2.99;66.92
63343;BME280;49465;57.664;39.686;2023-03-12T02:54:14;98176.28;;;3.13;66.20
63343;BME280;49465;57.664;39.686;2023-03-12T02:56:44;98172.97;;;3.11;66.47
63343;BME280;49465;57.664;39.686;2023-03-12T02:59:11;98170.47;;;3.09;67.06
63343;BME280;49465;57.664;39.686;2023-03-12T03:01:39;98153.72;;;3.15;66.95
63343;BME280;49465;57.664;39.686;2023-03-12T03:04:07;98148.53;;;3.28;66.34
63343;BME280;49465;57.664;39.686;2023-03-12T03:06:48;98148.72;;;3.38;66.32
63343;BME280;49465;57.664;39.686;2023-03-12T03:09:14;98145.09;;;3.27;66.26
63343;BME280;49465;57.664;39.686;2023-03-12T03:11:41;98145.63;;;3.32;66.18
63343;BME280;49465;57.664;39.686;2023-03-12T03:14:07;98139.00;;;3.28;66.46
63343;BME280;49465;57.664;39.686;2023-03-12T03:16:44;98139.91;;;3.27;66.25
63343;BME280;49465;57.664;39.686;2023-03-12T03:19:10;98130.69;;;3.36;66.35
63343;BME280;49465;57.664;39.686;2023-03-12T03:21:37;98130.38;;;3.41;66.57
63343;BME280;49465;57.664;39.686;2023-03-12T03:24:06;98125.81;;;3.44;66.45
63343;BME280;49465;57.664;39.686;2023-03-12T03:26:33;98121.97;;;3.50;65.78
63343;BME280;49465;57.664;39.686;2023-03-12T03:28:59;98118.56;;;3.49;66.07
63343;BME280;49465;57.664;39.686;2023-03-12T03:31:28;98124.34;;;3.53;65.58
63343;BME280;49465;57.664;39.686;2023-03-12T03:33:58;98109.41;;;3.56;65.62
63343;BME280;49465;57.664;39.686;2023-03-12T03:36:24;98110.78;;;3.49;66.47
63343;BME280;49465;57.664;39.686;2023-03-12T03:38:50;98097.81;;;3.49;66.10
63343;BME280;49465;57.664;39.686;2023-03-12T03:41:18;98098.00;;;3.59;66.30
63343;BME280;49465;57.664;39.686;2023-03-12T03:43:45;98083.47;;;3.56;66.80
63343;BME280;49465;57.664;39.686;2023-03-12T03:46:13;98080.97;;;3.68;66.15
63343;BME280;49465;57.664;39.686;2023-03-12T03:48:40;98073.28;;;3.66;66.36
63343;BME280;49465;57.664;39.686;2023-03-12T03:51:08;98072.88;;;3.72;66.35
63343;BME280;49465;57.664;39.686;2023-03-12T03:53:35;98061.28;;;3.65;66.38
63343;BME280;49465;57.664;39.686;2023-03-12T03:56:13;98058.94;;;3.97;67.19
63343;BME280;49465;57.664;39.686;2023-03-12T03:58:43;98049.94;;;3.79;65.67
63343;BME280;49465;57.664;39.686;2023-03-12T04:01:15;98045.28;;;3.95;66.72
63343;BME280;49465;57.664;39.686;2023-03-12T04:03:43;98033.09;;;3.85;66.79
63343;BME280;49465;57.664;39.686;2023-03-12T04:06:12;98028.53;;;3.88;67.06
63343;BME280;49465;57.664;39.686;2023-03-12T04:08:39;98028.41;;;3.66;67.96
63343;BME280;49465;57.664;39.686;2023-03-12T04:11:10;98022.78;;;3.72;68.15
63343;BME280;49465;57.664;39.686;2023-03-12T04:13:37;98020.91;;;3.74;68.30
63343;BME280;49465;57.664;39.686;2023-03-12T04:16:07;98013.94;;;3.99;68.12
63343;BME280;49465;57.664;39.686;2023-03-12T04:18:37;98008.66;;;4.00;67.95
63343;BME280;49465;57.664;39.686;2023-03-12T04:21:07;98011.19;;;3.89;67.29
63343;BME280;49465;57.664;39.686;2023-03-12T04:23:39;98005.94;;;4.02;68.00
63343;BME280;49465;57.664;39.686;2023-03-12T04:26:06;97995.19;;;3.95;67.13
63343;BME280;49465;57.664;39.686;2023-03-12T04:28:39;97997.72;;;4.08;67.89
63343;BME280;49465;57.664;39.686;2023-03-12T04:31:07;97991.53;;;3.97;68.13
63343;BME280;49465;57.664;39.686;2023-03-12T04:33:35;97982.38;;;4.05;67.60
63343;BME280;49465;57.664;39.686;2023-03-12T04:36:08;97980.88;;;4.25;67.51
63343;BME280;49465;57.664;39.686;2023-03-12T04:38:35;97971.97;;;3.93;68.37
63343;BME280;49465;57.664;39.686;2023-03-12T04:41:06;97981.94;;;4.22;68.44
63343;BME280;49465;57.664;39.686;2023-03-12T04:43:37;97973.31;;;4.10;67.07
63343;BME280;49465;57.664;39.686;2023-03-12T04:46:04;97971.06;;;4.17;67.04
63343;BME280;49465;57.664;39.686;2023-03-12T04:48:34;97970.25;;;4.16;66.97
63343;BME280;49465;57.664;39.686;2023-03-12T04:51:04;97963.69;;;4.24;66.71
63343;BME280;49465;57.664;39.686;2023-03-12T04:53:38;97967.59;;;4.29;67.57
63343;BME280;49465;57.664;39.686;2023-03-12T04:56:08;97960.63;;;4.41;67.95
63343;BME280;49465;57.664;39.686;2023-03-12T04:58:38;97947.19;;;4.47;66.97
63343;BME280;49465;57.664;39.686;2023-03-12T05:01:05;97946.81;;;4.29;66.90
63343;BME280;49465;57.664;39.686;2023-03-12T05:03:35;97949.69;;;4.49;67.15
63343;BME280;49465;57.664;39.686;2023-03-12T05:06:07;97935.38;;;4.32;67.23
63343;BME280;49465;57.664;39.686;2023-03-12T05:08:44;97937.75;;;4.46;67.51
63343;BME280;49465;57.664;39.686;2023-03-12T05:11:20;97929.97;;;4.58;66.45
63343;BME280;49465;57.664;39.686;2023-03-12T05:13:58;97928.56;;;4.53;67.30
63343;BME280;49465;57.664;39.686;2023-03-12T05:16:31;97920.16;;;4.50;66.88
63343;BME280;49465;57.664;39.686;2023-03-12T05:19:00;97914.50;;;4.56;67.46
63343;BME280;49465;57.664;39.686;2023-03-12T05:21:49;97903.19;;;4.57;67.04
63343;BME280;49465;57.664;39.686;2023-03-12T05:24:18;97903.19;;;4.46;66.70
63343;BME280;49465;57.664;39.686;2023-03-12T05:26:47;97907.66;;;4.44;66.93
63343;BME280;49465;57.664;39.686;2023-03-12T05:29:19;97892.81;;;4.57;66.69
63343;BME280;49465;57.664;39.686;2023-03-12T05:31:50;97892.91;;;4.67;67.48
63343;BME280;49465;57.664;39.686;2023-03-12T05:34:19;97885.13;;;4.55;66.88
63343;BME280;49465;57.664;39.686;2023-03-12T05:36:48;97874.75;;;4.55;67.40
63343;BME280;49465;57.664;39.686;2023-03-12T05:39:26;97880.16;;;4.75;67.38
63343;BME280;49465;57.664;39.686;2023-03-12T05:41:56;97876.97;;;4.60;67.61
63343;BME280;49465;57.664;39.686;2023-03-12T05:44:26;97867.06;;;4.65;66.77
63343;BME280;49465;57.664;39.686;2023-03-12T05:46:55;97854.91;;;4.66;67.51
63343;BME280;49465;57.664;39.686;2023-03-12T05:49:21;97858.81;;;4.60;68.12
63343;BME280;49465;57.664;39.686;2023-03-12T05:51:49;97857.38;;;4.67;67.41
63343;BME280;49465;57.664;39.686;2023-03-12T05:54:20;97850.19;;;4.71;67.37
63343;BME280;49465;57.664;39.686;2023-03-12T05:56:47;97852.53;;;4.74;68.20
63343;BME280;49465;57.664;39.686;2023-03-12T05:59:13;97843.19;;;4.83;67.53
63343;BME280;49465;57.664;39.686;2023-03-12T06:01:40;97837.44;;;4.79;68.07
63343;BME280;49465;57.664;39.686;2023-03-12T06:04:09;97837.31;;;4.81;67.35
63343;BME280;49465;57.664;39.686;2023-03-12T06:06:39;97847.41;;;4.95;67.89
63343;BME280;49465;57.664;39.686;2023-03-12T06:09:05;97834.81;;;4.90;67.13
63343;BME280;49465;57.664;39.686;2023-03-12T06:11:33;97839.25;;;5.00;67.33
63343;BME280;49465;57.664;39.686;2023-03-12T06:14:00;97836.56;;;4.90;67.47
63343;BME280;49465;57.664;39.686;2023-03-12T06:16:30;97824.28;;;4.92;68.08
63343;BME280;49465;57.664;39.686;2023-03-12T06:19:04;97826.09;;;5.12;68.38
63343;BME280;49465;57.664;39.686;2023-03-12T06:21:42;97819.13;;;5.13;68.16
63343;BME280;49465;57.664;39.686;2023-03-12T06:24:11;97811.72;;;5.08;67.30
63343;BME280;49465;57.664;39.686;2023-03-12T06:26:37;97804.22;;;5.15;67.59
63343;BME280;49465;57.664;39.686;2023-03-12T06:29:09;97803.50;;;5.24;67.64
63343;BME280;49465;57.664;39.686;2023-03-12T06:31:35;97800.25;;;5.11;67.32
63343;BME280;49465;57.664;39.686;2023-03-12T06:34:13;97798.13;;;5.37;69.06
63343;BME280;49465;57.664;39.686;2023-03-12T06:36:44;97795.00;;;5.22;67.40
63343;BME280;49465;57.664;39.686;2023-03-12T06:39:13;97790.50;;;5.24;68.02
63343;BME280;49465;57.664;39.686;2023-03-12T06:41:41;97780.97;;;5.13;68.18
63343;BME280;49465;57.664;39.686;2023-03-12T06:44:10;97785.19;;;5.26;67.45
63343;BME280;49465;57.664;39.686;2023-03-12T06:46:42;97785.38;;;5.34;68.78
63343;BME280;49465;57.664;39.686;2023-03-12T06:49:14;97783.34;;;5.38;68.75
63343;BME280;49465;57.664;39.686;2023-03-12T06:51:44;97772.38;;;5.34;68.50
63343;BME280;49465;57.664;39.686;2023-03-12T06:54:13;97761.78;;;5.47;68.25
63343;BME280;49465;57.664;39.686;2023-03-12T06:56:42;97753.56;;;5.42;68.65
63343;BME280;49465;57.664;39.686;2023-03-12T06:59:14;97740.56;;;5.42;67.96
63343;BME280;49465;57.664;39.686;2023-03-12T07:01:43;97747.97;;;5.46;67.50
63343;BME280;49465;57.664;39.686;2023-03-12T07:04:14;97745.00;;;5.51;68.81
63343;BME280;49465;57.664;39.686;2023-03-12T07:06:41;97733.38;;;5.55;67.64
63343;BME280;49465;57.664;39.686;2023-03-12T07:09:07;97730.38;;;5.60;67.52
63343;BME280;49465;57.664;39.686;2023-03-12T07:11:40;97726.16;;;5.59;68.51
63343;BME280;49465;57.664;39.686;2023-03-12T07:14:09;97717.75;;;5.45;68.42
63343;BME280;49465;57.664;39.686;2023-03-12T07:16:43;97713.31;;;5.67;68.42
63343;BME280;49465;57.664;39.686;2023-03-12T07:19:12;97707.69;;;5.62;67.71
63343;BME280;49465;57.664;39.686;2023-03-12T07:21:38;97708.81;;;5.69;67.37
63343;BME280;49465;57.664;39.686;2023-03-12T07:24:15;97704.47;;;5.79;68.24
63343;BME280;49465;57.664;39.686;2023-03-12T07:26:45;97698.66;;;5.66;67.96
63343;BME280;49465;57.664;39.686;2023-03-12T07:29:14;97700.31;;;5.67;67.82
63343;BME280;49465;57.664;39.686;2023-03-12T07:31:43;97704.72;;;5.76;67.37
63343;BME280;49465;57.664;39.686;2023-03-12T07:34:12;97686.03;;;5.82;67.37
63343;BME280;49465;57.664;39.686;2023-03-12T07:36:42;97688.19;;;5.77;67.29
63343;BME280;49465;57.664;39.686;2023-03-12T07:39:08;97685.03;;;5.83;67.41
63343;BME280;49465;57.664;39.686;2023-03-12T07:41:35;97683.94;;;5.86;67.10
63343;BME280;49465;57.664;39.686;2023-03-12T07:44:05;97678.03;;;5.74;68.18
63343;BME280;49465;57.664;39.686;2023-03-12T07:46:31;97675.44;;;5.74;67.96
63343;BME280;49465;57.664;39.686;2023-03-12T07:49:03;97668.31;;;5.76;67.86
63343;BME280;49465;57.664;39.686;2023-03-12T07:51:30;97669.13;;;5.67;68.50
63343;BME280;49465;57.664;39.686;2023-03-12T07:53:59;97648.44;;;5.96;68.63
63343;BME280;49465;57.664;39.686;2023-03-12T07:56:28;97646.59;;;5.87;68.40
63343;BME280;49465;57.664;39.686;2023-03-12T07:59:01;97647.41;;;5.87;69.57
63343;BME280;49465;57.664;39.686;2023-03-12T08:01:30;97630.88;;;5.88;68.35
63343;BME280;49465;57.664;39.686;2023-03-12T08:04:01;97642.41;;;6.05;69.07
63343;BME280;49465;57.664;39.686;2023-03-12T08:06:28;97630.72;;;5.80;69.59
63343;BME280;49465;57.664;39.686;2023-03-12T08:08:57;97628.03;;;6.01;69.26
63343;BME280;49465;57.664;39.686;2023-03-12T08:11:26;97620.59;;;5.87;69.33
63343;BME280;49465;57.664;39.686;2023-03-12T08:13:59;97616.56;;;6.04;70.11
63343;BME280;49465;57.664;39.686;2023-03-12T08:16:29;97614.03;;;5.92;70.17
63343;BME280;49465;57.664;39.686;2023-03-12T08:18:58;97611.75;;;5.99;69.65
63343;BME280;49465;57.664;39.686;2023-03-12T08:21:27;97597.25;;;6.06;69.19
63343;BME280;49465;57.664;39.686;2023-03-12T08:23:56;97602.31;;;6.18;69.61
63343;BME280;49465;57.664;39.686;2023-03-12T08:26:22;97588.34;;;6.09;69.02
63343;BME280;49465;57.664;39.686;2023-03-12T08:28:48;97585.06;;;6.07;69.44
63343;BME280;49465;57.664;39.686;2023-03-12T08:31:15;97565.22;;;5.96;70.45
63343;BME280;49465;57.664;39.686;2023-03-12T08:33:41;97574.66;;;6.26;69.00
63343;BME280;49465;57.664;39.686;2023-03-12T08:36:09;97581.34;;;6.29;69.37
63343;BME280;49465;57.664;39.686;2023-03-12T08:38:38;97581.91;;;6.23;69.43
63343;BME280;49465;57.664;39.686;2023-03-12T08:41:04;97583.44;;;6.06;70.74
63343;BME280;49465;57.664;39.686;2023-03-12T08:43:44;97578.34;;;6.43;71.63
63343;BME280;49465;57.664;39.686;2023-03-12T08:46:14;97572.97;;;6.45;70.33
63343;BME280;49465;57.664;39.686;2023-03-12T08:48:43;97561.06;;;6.42;69.62
63343;BME280;49465;57.664;39.686;2023-03-12T08:51:10;97561.75;;;6.44;69.11
63343;BME280;49465;57.664;39.686;2023-03-12T08:53:36;97553.94;;;6.54;68.93
63343;BME280;49465;57.664;39.686;2023-03-12T08:56:06;97562.16;;;6.49;69.75
63343;BME280;49465;57.664;39.686;2023-03-12T08:58:38;97553.41;;;6.41;70.67
63343;BME280;49465;57.664;39.686;2023-03-12T09:01:17;97561.34;;;6.49;70.79
63343;BME280;49465;57.664;39.686;2023-03-12T09:03:43;97549.84;;;6.32;70.80
63343;BME280;49465;57.664;39.686;2023-03-12T09:06:12;97549.84;;;6.42;70.79
63343;BME280;49465;57.664;39.686;2023-03-12T09:08:47;97539.13;;;6.45;70.43
63343;BME280;49465;57.664;39.686;2023-03-12T09:11:22;97540.31;;;6.70;70.99
63343;BME280;49465;57.664;39.686;2023-03-12T09:13:51;97531.06;;;6.48;70.83
63343;BME280;49465;57.664;39.686;2023-03-12T09:16:19;97522.69;;;6.54;70.49
63343;BME280;49465;57.664;39.686;2023-03-12T09:18:46;97528.19;;;6.51;70.56
63343;BME280;49465;57.664;39.686;2023-03-12T09:24:09;97516.34;;;6.66;71.33
63343;BME280;49465;57.664;39.686;2023-03-12T09:26:38;97504.28;;;6.75;70.28
63343;BME280;49465;57.664;39.686;2023-03-12T09:29:08;97507.00;;;6.73;69.71
63343;BME280;49465;57.664;39.686;2023-03-12T09:31:35;97512.13;;;6.65;70.21
63343;BME280;49465;57.664;39.686;2023-03-12T09:34:03;97513.19;;;6.72;69.80
63343;BME280;49465;57.664;39.686;2023-03-12T09:36:38;97506.75;;;6.77;69.67
63343;BME280;49465;57.664;39.686;2023-03-12T09:39:07;97504.13;;;6.77;70.84
63343;BME280;49465;57.664;39.686;2023-03-12T09:41:36;97500.66;;;6.86;69.50
63343;BME280;49465;57.664;39.686;2023-03-12T09:52:40;97488.94;;;7.00;71.27
63343;BME280;49465;57.664;39.686;2023-03-12T09:55:17;97483.38;;;6.95;71.37
63343;BME280;49465;57.664;39.686;2023-03-12T09:57:48;97473.47;;;6.70;71.56
63343;BME280;49465;57.664;39.686;2023-03-12T10:00:23;97459.63;;;6.98;70.89
63343;BME280;49465;57.664;39.686;2023-03-12T10:03:03;97460.81;;;7.03;70.19
63343;BME280;49465;57.664;39.686;2023-03-12T10:08:23;97440.25;;;7.28;70.22
63343;BME280;49465;57.664;39.686;2023-03-12T10:11:17;97438.34;;;6.75;71.71
63343;BME280;49465;57.664;39.686;2023-03-12T10:16:30;97431.22;;;7.22;70.65
63343;BME280;49465;57.664;39.686;2023-03-12T10:19:18;97413.81;;;7.23;70.21
63343;BME280;49465;57.664;39.686;2023-03-12T10:27:29;97400.31;;;7.09;70.95
63343;BME280;49465;57.664;39.686;2023-03-12T10:30:02;97402.13;;;7.27;69.36
63343;BME280;49465;57.664;39.686;2023-03-12T10:32:49;97403.44;;;7.31;70.19
63343;BME280;49465;57.664;39.686;2023-03-12T10:35:26;97394.38;;;7.17;70.28
63343;BME280;49465;57.664;39.686;2023-03-12T10:38:04;97393.25;;;7.20;70.41
63343;BME280;49465;57.664;39.686;2023-03-12T10:40:47;97377.63;;;7.02;69.75
63343;BME280;49465;57.664;39.686;2023-03-12T10:43:35;97380.00;;;7.13;69.62
63343;BME280;49465;57.664;39.686;2023-03-12T10:48:45;97382.19;;;7.18;70.05
63343;BME280;49465;57.664;39.686;2023-03-12T10:51:17;97400.50;;;7.44;69.30
63343;BME280;49465;57.664;39.686;2023-03-12T10:53:49;97375.97;;;7.37;68.76
63343;BME280;49465;57.664;39.686;2023-03-12T10:56:23;97377.69;;;7.28;69.78
63343;BME280;49465;57.664;39.686;2023-03-12T10:58:54;97372.09;;;7.23;69.35
63343;BME280;49465;57.664;39.686;2023-03-12T11:01:30;97366.22;;;7.21;69.99
63343;BME280;49465;57.664;39.686;2023-03-12T11:04:18;97353.78;;;7.50;69.88
63343;BME280;49465;57.664;39.686;2023-03-12T11:09:38;97352.31;;;7.12;69.53
63343;BME280;49465;57.664;39.686;2023-03-12T11:12:28;97341.81;;;7.40;70.29
63343;BME280;49465;57.664;39.686;2023-03-12T11:14:56;97342.91;;;7.19;69.35
63343;BME280;49465;57.664;39.686;2023-03-12T11:17:29;97345.44;;;7.29;69.81
63343;BME280;49465;57.664;39.686;2023-03-12T11:19:57;97323.78;;;7.10;69.52
63343;BME280;49465;57.664;39.686;2023-03-12T11:22:32;97332.03;;;7.42;69.74
63343;BME280;49465;57.664;39.686;2023-03-12T11:25:26;97321.91;;;7.57;69.76
63343;BME280;49465;57.664;39.686;2023-03-12T11:28:05;97314.94;;;7.65;68.84
63343;BME280;49465;57.664;39.686;2023-03-12T11:30:38;97310.97;;;7.17;70.27
63343;BME280;49465;57.664;39.686;2023-03-12T11:33:09;97303.16;;;7.35;68.85
63343;BME280;49465;57.664;39.686;2023-03-12T11:35:51;97298.81;;;7.70;68.40
63343;BME280;49465;57.664;39.686;2023-03-12T11:38:37;97288.75;;;7.75;67.99
63343;BME280;49465;57.664;39.686;2023-03-12T11:44:24;97277.72;;;7.81;67.76
63343;BME280;49465;57.664;39.686;2023-03-12T11:47:18;97281.22;;;7.72;67.79
63343;BME280;49465;57.664;39.686;2023-03-12T11:49:59;97266.19;;;8.35;66.06
63343;BME280;49465;57.664;39.686;2023-03-12T11:52:51;97264.00;;;7.79;67.84
63343;BME280;49465;57.664;39.686;2023-03-12T11:58:03;97251.53;;;7.65;67.07
63343;BME280;49465;57.664;39.686;2023-03-12T12:09:20;97237.31;;;7.93;66.65
63343;BME280;49465;57.664;39.686;2023-03-12T12:12:06;97240.72;;;7.86;66.71
63343;BME280;49465;57.664;39.686;2023-03-12T12:17:53;97225.28;;;7.92;66.25
63343;BME280;49465;57.664;39.686;2023-03-12T12:20:38;97214.06;;;7.66;66.73
63343;BME280;49465;57.664;39.686;2023-03-12T12:23:34;97217.09;;;7.53;67.09
63343;BME280;49465;57.664;39.686;2023-03-12T12:26:13;97208.38;;;7.70;66.78
63343;BME280;49465;57.664;39.686;2023-03-12T12:29:08;97214.38;;;7.63;66.62
63343;BME280;49465;57.664;39.686;2023-03-12T12:31:53;97198.34;;;7.49;66.44
63343;BME280;49465;57.664;39.686;2023-03-12T12:40:13;97191.00;;;7.27;66.54
63343;BME280;49465;57.664;39.686;2023-03-12T12:45:30;97187.38;;;6.93;68.73
63343;BME280;49465;57.664;39.686;2023-03-12T12:48:19;97184.13;;;7.18;69.46
63343;BME280;49465;57.664;39.686;2023-03-12T12:50:55;97186.09;;;6.98;68.59
63343;BME280;49465;57.664;39.686;2023-03-12T13:01:30;97158.63;;;7.03;69.11
63343;BME280;49465;57.664;39.686;2023-03-12T13:04:05;97152.69;;;7.19;69.15
63343;BME280;49465;57.664;39.686;2023-03-12T13:06:54;97136.91;;;7.47;68.81
63343;BME280;49465;57.664;39.686;2023-03-12T13:09:44;97147.78;;;7.42;68.81
63343;BME280;49465;57.664;39.686;2023-03-12T13:12:35;97137.47;;;7.32;69.42
63343;BME280;49465;57.664;39.686;2023-03-12T13:15:33;97140.75;;;7.43;69.54
63343;BME280;49465;57.664;39.686;2023-03-12T13:18:21;97140.91;;;7.07;69.62
63343;BME280;49465;57.664;39.686;2023-03-12T13:33:58;97112.94;;;7.17;68.51
63343;BME280;49465;57.664;39.686;2023-03-12T13:36:27;97115.41;;;7.19;69.20
63343;BME280;49465;57.664;39.686;2023-03-12T13:50:11;97107.09;;;7.49;68.41
63343;BME280;49465;57.664;39.686;2023-03-12T13:52:48;97098.75;;;7.46;68.20
63343;BME280;49465;57.664;39.686;2023-03-12T13:55:33;97097.34;;;7.60;67.81
63343;BME280;49465;57.664;39.686;2023-03-12T13:58:14;97085.34;;;7.32;68.78
63343;BME280;49465;57.664;39.686;2023-03-12T14:00:48;97100.81;;;7.34;67.70
63343;BME280;49465;57.664;39.686;2023-03-12T14:03:40;97093.06;;;7.50;68.12
63343;BME280;49465;57.664;39.686;2023-03-12T14:06:20;97089.97;;;7.47;67.95
63343;BME280;49465;57.664;39.686;2023-03-12T14:11:52;97079.03;;;7.35;68.15
63343;BME280;49465;57.664;39.686;2023-03-12T14:14:47;97070.09;;;7.46;67.77
63343;BME280;49465;57.664;39.686;2023-03-12T14:17:31;97074.63;;;7.44;67.89
63343;BME280;49465;57.664;39.686;2023-03-12T14:20:19;97072.16;;;7.34;68.58
63343;BME280;49465;57.664;39.686;2023-03-12T14:23:11;97066.72;;;7.62;68.05
63343;BME280;49465;57.664;39.686;2023-03-12T14:25:49;97066.66;;;7.37;67.79
63343;BME280;49465;57.664;39.686;2023-03-12T14:28:27;97057.03;;;7.38;67.33
63343;BME280;49465;57.664;39.686;2023-03-12T14:31:08;97059.22;;;7.16;67.50
63343;BME280;49465;57.664;39.686;2023-03-12T14:34:37;97067.03;;;7.59;67.17
63343;BME280;49465;57.664;39.686;2023-03-12T14:36:49;97063.28;;;7.53;67.39
63343;BME280;49465;57.664;39.686;2023-03-12T14:39:34;97061.03;;;7.24;67.59
63343;BME280;49465;57.664;39.686;2023-03-12T14:42:08;97066.66;;;7.37;67.75
63343;BME280;49465;57.664;39.686;2023-03-12T14:44:38;97073.81;;;7.35;67.50
63343;BME280;49465;57.664;39.686;2023-03-12T14:47:12;97054.84;;;7.25;67.35
63343;BME280;49465;57.664;39.686;2023-03-12T14:49:45;97061.16;;;7.14;67.85
63343;BME280;49465;57.664;39.686;2023-03-12T14:52:23;97055.88;;;7.32;68.18
63343;BME280;49465;57.664;39.686;2023-03-12T14:55:07;97052.66;;;7.46;67.36
63343;BME280;49465;57.664;39.686;2023-03-12T14:58:01;97054.56;;;7.36;67.50
63343;BME280;49465;57.664;39.686;2023-03-12T15:00:28;97051.03;;;7.11;67.27
63343;BME280;49465;57.664;39.686;2023-03-12T15:02:59;97051.78;;;7.29;67.17
63343;BME280;49465;57.664;39.686;2023-03-12T15:05:35;97051.00;;;7.37;66.83
63343;BME280;49465;57.664;39.686;2023-03-12T15:08:03;97053.53;;;7.21;66.82
63343;BME280;49465;57.664;39.686;2023-03-12T15:10:35;97046.72;;;7.28;66.80
63343;BME280;49465;57.664;39.686;2023-03-12T15:13:08;97048.34;;;7.29;66.85